sensor_id;sensor_type;location;lat;lon;timestamp;P1;durP1;ratioP1;P2;durP2;ratioP2
71969;SDS011;59838;52.152;5.436;2022-08-30T00:00:08;7.53;;;2.70;;
71969;SDS011;59838;52.152;5.436;2022-08-30T00:03:06;5.47;;;2.92;;
71969;SDS011;59838;52.152;5.436;2022-08-30T00:05:41;8.80;;;3.55;;
71969;SDS011;59838;52.152;5.436;2022-08-30T00:08:21;4.47;;;2.25;;
71969;SDS011;59838;52.152;5.436;2022-08-30T00:10:57;4.67;;;2.20;;
71969;SDS011;59838;52.152;5.436;2022-08-30T00:13:23;4.57;;;2.83;;
71969;SDS011;59838;52.152;5.436;2022-08-30T00:15:50;5.25;;;2.75;;
71969;SDS011;59838;52.152;5.436;2022-08-30T00:18:23;5.25;;;3.25;;
71969;SDS011;59838;52.152;5.436;2022-08-30T00:20:50;4.20;;;2.22;;
71969;SDS011;59838;52.152;5.436;2022-08-30T00:23:23;3.60;;;2.13;;
71969;SDS011;59838;52.152;5.436;2022-08-30T00:25:49;6.75;;;2.70;;
71969;SDS011;59838;52.152;5.436;2022-08-30T00:28:23;8.00;;;2.97;;
71969;SDS011;59838;52.152;5.436;2022-08-30T00:30:49;3.85;;;2.45;;
71969;SDS011;59838;52.152;5.436;2022-08-30T00:33:16;6.25;;;2.53;;
71969;SDS011;59838;52.152;5.436;2022-08-30T00:35:50;4.30;;;2.27;;
71969;SDS011;59838;52.152;5.436;2022-08-30T00:38:16;4.35;;;2.38;;
71969;SDS011;59838;52.152;5.436;2022-08-30T00:40:51;6.97;;;2.80;;
71969;SDS011;59838;52.152;5.436;2022-08-30T00:43:23;4.50;;;2.65;;
71969;SDS011;59838;52.152;5.436;2022-08-30T00:46:01;6.53;;;2.70;;
71969;SDS011;59838;52.152;5.436;2022-08-30T00:48:30;7.13;;;3.30;;
71969;SDS011;59838;52.152;5.436;2022-08-30T00:50:59;4.03;;;2.58;;
71969;SDS011;59838;52.152;5.436;2022-08-30T00:53:35;5.43;;;3.35;;
71969;SDS011;59838;52.152;5.436;2022-08-30T00:56:07;8.82;;;3.58;;
71969;SDS011;59838;52.152;5.436;2022-08-30T00:58:43;5.75;;;3.10;;
71969;SDS011;59838;52.152;5.436;2022-08-30T01:01:21;3.17;;;2.73;;
71969;SDS011;59838;52.152;5.436;2022-08-30T01:03:48;6.50;;;3.78;;
71969;SDS011;59838;52.152;5.436;2022-08-30T01:06:23;4.82;;;3.03;;
71969;SDS011;59838;52.152;5.436;2022-08-30T01:08:57;6.45;;;3.67;;
71969;SDS011;59838;52.152;5.436;2022-08-30T01:11:33;5.20;;;3.28;;
71969;SDS011;59838;52.152;5.436;2022-08-30T01:14:02;7.70;;;3.30;;
71969;SDS011;59838;52.152;5.436;2022-08-30T01:16:31;6.57;;;3.28;;
71969;SDS011;59838;52.152;5.436;2022-08-30T01:19:08;6.38;;;3.60;;
71969;SDS011;59838;52.152;5.436;2022-08-30T01:21:51;7.78;;;4.18;;
71969;SDS011;59838;52.152;5.436;2022-08-30T01:24:29;6.82;;;3.70;;
71969;SDS011;59838;52.152;5.436;2022-08-30T01:26:56;4.57;;;3.50;;
71969;SDS011;59838;52.152;5.436;2022-08-30T01:29:23;4.55;;;3.47;;
71969;SDS011;59838;52.152;5.436;2022-08-30T01:31:57;5.93;;;3.15;;
71969;SDS011;59838;52.152;5.436;2022-08-30T01:34:23;5.75;;;4.07;;
71969;SDS011;59838;52.152;5.436;2022-08-30T01:36:57;6.22;;;3.83;;
71969;SDS011;59838;52.152;5.436;2022-08-30T01:39:23;4.50;;;3.80;;
71969;SDS011;59838;52.152;5.436;2022-08-30T01:41:57;6.75;;;4.13;;
71969;SDS011;59838;52.152;5.436;2022-08-30T01:44:23;5.13;;;3.88;;
71969;SDS011;59838;52.152;5.436;2022-08-30T01:46:57;5.25;;;3.63;;
71969;SDS011;59838;52.152;5.436;2022-08-30T01:49:23;6.53;;;3.63;;
71969;SDS011;59838;52.152;5.436;2022-08-30T01:51:53;9.80;;;4.37;;
71969;SDS011;59838;52.152;5.436;2022-08-30T01:54:28;4.38;;;3.70;;
71969;SDS011;59838;52.152;5.436;2022-08-30T01:57:03;5.00;;;3.95;;
71969;SDS011;59838;52.152;5.436;2022-08-30T01:59:39;6.55;;;4.00;;
71969;SDS011;59838;52.152;5.436;2022-08-30T02:02:15;5.72;;;3.80;;
71969;SDS011;59838;52.152;5.436;2022-08-30T02:04:52;6.90;;;3.90;;
71969;SDS011;59838;52.152;5.436;2022-08-30T02:07:25;7.40;;;3.70;;
71969;SDS011;59838;52.152;5.436;2022-08-30T02:09:58;4.68;;;3.92;;
71969;SDS011;59838;52.152;5.436;2022-08-30T02:12:25;5.55;;;4.35;;
71969;SDS011;59838;52.152;5.436;2022-08-30T02:15:06;6.32;;;4.47;;
71969;SDS011;59838;52.152;5.436;2022-08-30T02:17:33;5.60;;;4.07;;
71969;SDS011;59838;52.152;5.436;2022-08-30T02:20:07;10.52;;;4.10;;
71969;SDS011;59838;52.152;5.436;2022-08-30T02:22:34;5.38;;;4.07;;
71969;SDS011;59838;52.152;5.436;2022-08-30T02:25:01;7.38;;;4.20;;
71969;SDS011;59838;52.152;5.436;2022-08-30T02:27:46;6.22;;;4.20;;
71969;SDS011;59838;52.152;5.436;2022-08-30T02:30:12;8.07;;;4.40;;
71969;SDS011;59838;52.152;5.436;2022-08-30T02:32:46;4.97;;;4.18;;
71969;SDS011;59838;52.152;5.436;2022-08-30T02:35:12;6.60;;;4.78;;
71969;SDS011;59838;52.152;5.436;2022-08-30T02:37:45;6.32;;;4.32;;
71969;SDS011;59838;52.152;5.436;2022-08-30T02:40:12;8.57;;;4.60;;
71969;SDS011;59838;52.152;5.436;2022-08-30T02:42:45;7.93;;;4.40;;
71969;SDS011;59838;52.152;5.436;2022-08-30T02:45:14;5.25;;;4.05;;
71969;SDS011;59838;52.152;5.436;2022-08-30T02:47:44;7.20;;;4.40;;
71969;SDS011;59838;52.152;5.436;2022-08-30T02:50:17;7.60;;;4.47;;
71969;SDS011;59838;52.152;5.436;2022-08-30T02:52:43;11.60;;;5.10;;
71969;SDS011;59838;52.152;5.436;2022-08-30T02:55:19;5.00;;;4.50;;
71969;SDS011;59838;52.152;5.436;2022-08-30T02:57:45;8.43;;;5.03;;
71969;SDS011;59838;52.152;5.436;2022-08-30T03:00:19;7.15;;;5.00;;
71969;SDS011;59838;52.152;5.436;2022-08-30T03:02:46;9.75;;;5.18;;
71969;SDS011;59838;52.152;5.436;2022-08-30T03:05:13;5.57;;;4.80;;
71969;SDS011;59838;52.152;5.436;2022-08-30T03:07:47;7.37;;;5.13;;
71969;SDS011;59838;52.152;5.436;2022-08-30T03:10:14;7.88;;;4.97;;
71969;SDS011;59838;52.152;5.436;2022-08-30T03:12:41;9.02;;;5.25;;
71969;SDS011;59838;52.152;5.436;2022-08-30T03:15:22;10.73;;;5.00;;
71969;SDS011;59838;52.152;5.436;2022-08-30T03:17:52;7.97;;;5.03;;
71969;SDS011;59838;52.152;5.436;2022-08-30T03:20:27;6.73;;;5.70;;
71969;SDS011;59838;52.152;5.436;2022-08-30T03:22:54;6.40;;;5.00;;
71969;SDS011;59838;52.152;5.436;2022-08-30T03:25:27;8.38;;;5.05;;
71969;SDS011;59838;52.152;5.436;2022-08-30T03:28:01;7.65;;;4.85;;
71969;SDS011;59838;52.152;5.436;2022-08-30T03:30:27;8.05;;;5.25;;
71969;SDS011;59838;52.152;5.436;2022-08-30T03:33:01;10.53;;;4.33;;
71969;SDS011;59838;52.152;5.436;2022-08-30T03:35:36;6.38;;;4.07;;
71969;SDS011;59838;52.152;5.436;2022-08-30T03:38:02;7.40;;;4.57;;
71969;SDS011;59838;52.152;5.436;2022-08-30T03:40:29;6.43;;;4.50;;
71969;SDS011;59838;52.152;5.436;2022-08-30T03:43:03;9.32;;;5.18;;
71969;SDS011;59838;52.152;5.436;2022-08-30T03:45:30;6.73;;;5.00;;
71969;SDS011;59838;52.152;5.436;2022-08-30T03:48:04;7.85;;;5.10;;
71969;SDS011;59838;52.152;5.436;2022-08-30T03:50:30;8.85;;;5.28;;
71969;SDS011;59838;52.152;5.436;2022-08-30T03:53:04;9.70;;;5.80;;
71969;SDS011;59838;52.152;5.436;2022-08-30T03:55:31;8.43;;;5.25;;
71969;SDS011;59838;52.152;5.436;2022-08-30T03:58:05;7.70;;;5.00;;
71969;SDS011;59838;52.152;5.436;2022-08-30T04:00:31;5.68;;;5.10;;
71969;SDS011;59838;52.152;5.436;2022-08-30T04:03:05;7.10;;;4.57;;
71969;SDS011;59838;52.152;5.436;2022-08-30T04:05:31;8.80;;;5.18;;
71969;SDS011;59838;52.152;5.436;2022-08-30T04:07:57;6.53;;;4.53;;
71969;SDS011;59838;52.152;5.436;2022-08-30T04:10:31;5.00;;;4.53;;
71969;SDS011;59838;52.152;5.436;2022-08-30T04:13:03;4.90;;;4.32;;
71969;SDS011;59838;52.152;5.436;2022-08-30T04:15:36;5.63;;;3.80;;
71969;SDS011;59838;52.152;5.436;2022-08-30T04:18:03;5.38;;;4.15;;
71969;SDS011;59838;52.152;5.436;2022-08-30T04:20:36;5.00;;;4.45;;
71969;SDS011;59838;52.152;5.436;2022-08-30T04:23:03;6.73;;;4.57;;
71969;SDS011;59838;52.152;5.436;2022-08-30T04:25:39;7.72;;;5.00;;
71969;SDS011;59838;52.152;5.436;2022-08-30T04:28:13;6.93;;;4.65;;
71969;SDS011;59838;52.152;5.436;2022-08-30T04:30:46;5.30;;;4.78;;
71969;SDS011;59838;52.152;5.436;2022-08-30T04:33:14;7.07;;;5.30;;
71969;SDS011;59838;52.152;5.436;2022-08-30T04:35:42;7.30;;;5.60;;
71969;SDS011;59838;52.152;5.436;2022-08-30T04:38:19;6.22;;;5.13;;
71969;SDS011;59838;52.152;5.436;2022-08-30T04:40:48;8.50;;;5.07;;
71969;SDS011;59838;52.152;5.436;2022-08-30T04:43:22;6.90;;;5.07;;
71969;SDS011;59838;52.152;5.436;2022-08-30T04:45:56;7.18;;;5.07;;
71969;SDS011;59838;52.152;5.436;2022-08-30T04:48:23;9.87;;;5.73;;
71969;SDS011;59838;52.152;5.436;2022-08-30T04:50:57;8.52;;;5.25;;
71969;SDS011;59838;52.152;5.436;2022-08-30T04:53:30;6.20;;;5.60;;
71969;SDS011;59838;52.152;5.436;2022-08-30T04:56:06;9.98;;;5.95;;
71969;SDS011;59838;52.152;5.436;2022-08-30T04:58:44;7.47;;;5.20;;
71969;SDS011;59838;52.152;5.436;2022-08-30T05:01:20;7.37;;;5.43;;
71969;SDS011;59838;52.152;5.436;2022-08-30T05:03:49;8.48;;;5.30;;
71969;SDS011;59838;52.152;5.436;2022-08-30T05:06:24;8.55;;;5.30;;
71969;SDS011;59838;52.152;5.436;2022-08-30T05:09:06;7.15;;;5.55;;
71969;SDS011;59838;52.152;5.436;2022-08-30T05:11:33;5.55;;;5.00;;
71969;SDS011;59838;52.152;5.436;2022-08-30T05:14:05;9.63;;;5.10;;
71969;SDS011;59838;52.152;5.436;2022-08-30T05:16:39;8.02;;;5.38;;
71969;SDS011;59838;52.152;5.436;2022-08-30T05:19:06;5.53;;;4.68;;
71969;SDS011;59838;52.152;5.436;2022-08-30T05:21:40;8.43;;;4.50;;
71969;SDS011;59838;52.152;5.436;2022-08-30T05:24:06;7.30;;;5.03;;
71969;SDS011;59838;52.152;5.436;2022-08-30T05:26:39;5.20;;;4.70;;
71969;SDS011;59838;52.152;5.436;2022-08-30T05:29:06;6.05;;;4.97;;
71969;SDS011;59838;52.152;5.436;2022-08-30T05:31:39;5.28;;;4.50;;
71969;SDS011;59838;52.152;5.436;2022-08-30T05:34:05;5.68;;;4.55;;
71969;SDS011;59838;52.152;5.436;2022-08-30T05:36:33;12.57;;;4.57;;
71969;SDS011;59838;52.152;5.436;2022-08-30T05:39:08;6.00;;;4.43;;
71969;SDS011;59838;52.152;5.436;2022-08-30T05:41:36;5.47;;;4.30;;
71969;SDS011;59838;52.152;5.436;2022-08-30T05:44:04;5.72;;;4.53;;
71969;SDS011;59838;52.152;5.436;2022-08-30T05:46:38;8.07;;;4.15;;
71969;SDS011;59838;52.152;5.436;2022-08-30T05:49:10;4.95;;;4.13;;
71969;SDS011;59838;52.152;5.436;2022-08-30T05:51:44;4.27;;;3.87;;
71969;SDS011;59838;52.152;5.436;2022-08-30T05:54:11;5.40;;;3.45;;
71969;SDS011;59838;52.152;5.436;2022-08-30T05:56:45;4.60;;;3.70;;
71969;SDS011;59838;52.152;5.436;2022-08-30T05:59:19;4.78;;;3.65;;
71969;SDS011;59838;52.152;5.436;2022-08-30T06:01:55;4.43;;;4.03;;
71969;SDS011;59838;52.152;5.436;2022-08-30T06:04:23;5.37;;;3.37;;
71969;SDS011;59838;52.152;5.436;2022-08-30T06:06:49;6.15;;;3.65;;
71969;SDS011;59838;52.152;5.436;2022-08-30T06:09:22;4.75;;;3.53;;
71969;SDS011;59838;52.152;5.436;2022-08-30T06:11:49;4.90;;;3.40;;
71969;SDS011;59838;52.152;5.436;2022-08-30T06:14:23;4.60;;;3.50;;
71969;SDS011;59838;52.152;5.436;2022-08-30T06:16:56;3.50;;;3.20;;
71969;SDS011;59838;52.152;5.436;2022-08-30T06:19:29;3.90;;;3.50;;
71969;SDS011;59838;52.152;5.436;2022-08-30T06:21:56;5.72;;;3.72;;
71969;SDS011;59838;52.152;5.436;2022-08-30T06:24:22;3.63;;;3.22;;
71969;SDS011;59838;52.152;5.436;2022-08-30T06:27:16;3.45;;;3.15;;
71969;SDS011;59838;52.152;5.436;2022-08-30T06:29:50;4.93;;;3.50;;
71969;SDS011;59838;52.152;5.436;2022-08-30T06:32:24;6.78;;;2.97;;
71969;SDS011;59838;52.152;5.436;2022-08-30T06:34:59;3.85;;;3.00;;
71969;SDS011;59838;52.152;5.436;2022-08-30T06:37:33;3.95;;;3.25;;
71969;SDS011;59838;52.152;5.436;2022-08-30T06:40:00;3.80;;;2.42;;
71969;SDS011;59838;52.152;5.436;2022-08-30T06:42:29;3.30;;;2.23;;
71969;SDS011;59838;52.152;5.436;2022-08-30T06:45:05;2.72;;;2.22;;
71969;SDS011;59838;52.152;5.436;2022-08-30T06:47:36;4.32;;;2.50;;
71969;SDS011;59838;52.152;5.436;2022-08-30T06:50:03;2.78;;;2.50;;
71969;SDS011;59838;52.152;5.436;2022-08-30T06:52:41;4.00;;;2.58;;
71969;SDS011;59838;52.152;5.436;2022-08-30T06:55:09;3.33;;;1.87;;
71969;SDS011;59838;52.152;5.436;2022-08-30T06:57:45;7.22;;;2.25;;
71969;SDS011;59838;52.152;5.436;2022-08-30T07:00:19;3.25;;;2.10;;
71969;SDS011;59838;52.152;5.436;2022-08-30T07:02:53;1.67;;;1.30;;
71969;SDS011;59838;52.152;5.436;2022-08-30T07:05:27;6.47;;;1.65;;
71969;SDS011;59838;52.152;5.436;2022-08-30T07:07:53;3.23;;;1.50;;
71969;SDS011;59838;52.152;5.436;2022-08-30T07:10:26;1.52;;;1.15;;
71969;SDS011;59838;52.152;5.436;2022-08-30T07:12:59;2.08;;;1.20;;
71969;SDS011;59838;52.152;5.436;2022-08-30T07:15:26;3.60;;;1.45;;
71969;SDS011;59838;52.152;5.436;2022-08-30T07:17:54;2.45;;;1.10;;
71969;SDS011;59838;52.152;5.436;2022-08-30T07:20:46;3.47;;;0.70;;
71969;SDS011;59838;52.152;5.436;2022-08-30T07:23:13;1.45;;;0.80;;
71969;SDS011;59838;52.152;5.436;2022-08-30T07:25:45;6.97;;;1.30;;
71969;SDS011;59838;52.152;5.436;2022-08-30T07:28:12;3.53;;;0.80;;
71969;SDS011;59838;52.152;5.436;2022-08-30T07:30:47;1.52;;;1.13;;
71969;SDS011;59838;52.152;5.436;2022-08-30T07:33:13;1.23;;;0.50;;
71969;SDS011;59838;52.152;5.436;2022-08-30T07:35:46;3.95;;;1.00;;
71969;SDS011;59838;52.152;5.436;2022-08-30T07:38:13;2.40;;;0.80;;
71969;SDS011;59838;52.152;5.436;2022-08-30T07:40:40;1.20;;;0.50;;
71969;SDS011;59838;52.152;5.436;2022-08-30T07:43:13;3.13;;;0.77;;
71969;SDS011;59838;52.152;5.436;2022-08-30T07:45:39;2.00;;;0.60;;
71969;SDS011;59838;52.152;5.436;2022-08-30T07:48:12;1.35;;;0.80;;
71969;SDS011;59838;52.152;5.436;2022-08-30T07:50:42;4.38;;;0.75;;
71969;SDS011;59838;52.152;5.436;2022-08-30T07:53:23;8.75;;;1.67;;
71969;SDS011;59838;52.152;5.436;2022-08-30T07:55:50;1.60;;;0.55;;
71969;SDS011;59838;52.152;5.436;2022-08-30T07:58:31;2.50;;;0.83;;
71969;SDS011;59838;52.152;5.436;2022-08-30T08:01:05;2.20;;;0.50;;
71969;SDS011;59838;52.152;5.436;2022-08-30T08:03:41;0.85;;;0.30;;
71969;SDS011;59838;52.152;5.436;2022-08-30T08:06:09;2.47;;;0.57;;
71969;SDS011;59838;52.152;5.436;2022-08-30T08:08:37;1.75;;;0.70;;
71969;SDS011;59838;52.152;5.436;2022-08-30T08:11:13;1.60;;;0.53;;
71969;SDS011;59838;52.152;5.436;2022-08-30T08:13:43;3.53;;;0.40;;
71969;SDS011;59838;52.152;5.436;2022-08-30T08:16:19;2.33;;;0.85;;
71969;SDS011;59838;52.152;5.436;2022-08-30T08:18:55;2.47;;;0.50;;
71969;SDS011;59838;52.152;5.436;2022-08-30T08:21:22;1.70;;;0.73;;
71969;SDS011;59838;52.152;5.436;2022-08-30T08:23:56;2.40;;;0.40;;
71969;SDS011;59838;52.152;5.436;2022-08-30T08:26:32;3.08;;;0.50;;
71969;SDS011;59838;52.152;5.436;2022-08-30T08:29:10;3.17;;;0.30;;
71969;SDS011;59838;52.152;5.436;2022-08-30T08:31:37;1.83;;;0.30;;
71969;SDS011;59838;52.152;5.436;2022-08-30T08:34:03;3.03;;;0.55;;
71969;SDS011;59838;52.152;5.436;2022-08-30T08:36:36;1.43;;;0.30;;
71969;SDS011;59838;52.152;5.436;2022-08-30T08:39:04;2.30;;;0.60;;
71969;SDS011;59838;52.152;5.436;2022-08-30T08:47:28;0.90;;;0.60;;
71969;SDS011;59838;52.152;5.436;2022-08-30T08:50:10;10.00;;;0.70;;
71969;SDS011;59838;52.152;5.436;2022-08-30T08:52:53;13.93;;;0.40;;
71969;SDS011;59838;52.152;5.436;2022-08-30T08:56:06;1.02;;;0.35;;
71969;SDS011;59838;52.152;5.436;2022-08-30T08:58:53;5.45;;;0.60;;
71969;SDS011;59838;52.152;5.436;2022-08-30T09:01:22;0.90;;;0.40;;
71969;SDS011;59838;52.152;5.436;2022-08-30T09:04:02;1.90;;;0.50;;
71969;SDS011;59838;52.152;5.436;2022-08-30T09:06:39;2.25;;;0.40;;
71969;SDS011;59838;52.152;5.436;2022-08-30T09:09:17;4.43;;;0.50;;
71969;SDS011;59838;52.152;5.436;2022-08-30T09:11:52;5.30;;;0.40;;
71969;SDS011;59838;52.152;5.436;2022-08-30T09:14:29;4.45;;;0.60;;
71969;SDS011;59838;52.152;5.436;2022-08-30T09:17:01;2.03;;;0.70;;
71969;SDS011;59838;52.152;5.436;2022-08-30T09:19:38;5.03;;;0.73;;
71969;SDS011;59838;52.152;5.436;2022-08-30T09:24:44;5.88;;;0.70;;
71969;SDS011;59838;52.152;5.436;2022-08-30T09:27:15;2.65;;;0.40;;
71969;SDS011;59838;52.152;5.436;2022-08-30T09:29:59;1.83;;;0.37;;
71969;SDS011;59838;52.152;5.436;2022-08-30T09:32:49;3.75;;;0.45;;
71969;SDS011;59838;52.152;5.436;2022-08-30T09:35:20;1.45;;;0.40;;
71969;SDS011;59838;52.152;5.436;2022-08-30T09:37:57;6.40;;;0.50;;
71969;SDS011;59838;52.152;5.436;2022-08-30T09:40:33;1.23;;;0.30;;
71969;SDS011;59838;52.152;5.436;2022-08-30T09:46:11;2.22;;;0.60;;
71969;SDS011;59838;52.152;5.436;2022-08-30T09:48:45;1.52;;;0.40;;
71969;SDS011;59838;52.152;5.436;2022-08-30T09:51:20;2.92;;;0.52;;
71969;SDS011;59838;52.152;5.436;2022-08-30T09:54:17;4.18;;;0.40;;
71969;SDS011;59838;52.152;5.436;2022-08-30T10:00:07;3.28;;;0.40;;
71969;SDS011;59838;52.152;5.436;2022-08-30T10:11:37;4.57;;;0.90;;
71969;SDS011;59838;52.152;5.436;2022-08-30T10:14:22;2.40;;;0.55;;
71969;SDS011;59838;52.152;5.436;2022-08-30T10:17:13;3.53;;;0.30;;
71969;SDS011;59838;52.152;5.436;2022-08-30T10:23:02;4.30;;;0.40;;
71969;SDS011;59838;52.152;5.436;2022-08-30T10:25:35;4.00;;;0.40;;
71969;SDS011;59838;52.152;5.436;2022-08-30T10:28:36;1.40;;;0.45;;
71969;SDS011;59838;52.152;5.436;2022-08-30T10:31:16;2.70;;;0.40;;
71969;SDS011;59838;52.152;5.436;2022-08-30T10:34:04;2.60;;;0.60;;
71969;SDS011;59838;52.152;5.436;2022-08-30T10:36:48;1.20;;;0.43;;
71969;SDS011;59838;52.152;5.436;2022-08-30T10:39:28;4.30;;;0.50;;
71969;SDS011;59838;52.152;5.436;2022-08-30T10:42:02;0.93;;;0.45;;
71969;SDS011;59838;52.152;5.436;2022-08-30T10:44:42;3.30;;;0.60;;
71969;SDS011;59838;52.152;5.436;2022-08-30T10:50:16;1.48;;;0.50;;
71969;SDS011;59838;52.152;5.436;2022-08-30T10:55:51;2.80;;;0.30;;
71969;SDS011;59838;52.152;5.436;2022-08-30T10:58:23;1.30;;;0.40;;
71969;SDS011;59838;52.152;5.436;2022-08-30T11:04:34;1.77;;;0.90;;
71969;SDS011;59838;52.152;5.436;2022-08-30T11:13:04;3.30;;;0.45;;
71969;SDS011;59838;52.152;5.436;2022-08-30T11:15:36;1.88;;;0.52;;
71969;SDS011;59838;52.152;5.436;2022-08-30T11:18:31;2.10;;;0.60;;
71969;SDS011;59838;52.152;5.436;2022-08-30T11:21:15;1.90;;;0.60;;
71969;SDS011;59838;52.152;5.436;2022-08-30T11:24:04;1.58;;;0.70;;
71969;SDS011;59838;52.152;5.436;2022-08-30T11:37:31;1.80;;;0.98;;
71969;SDS011;59838;52.152;5.436;2022-08-30T11:42:49;1.77;;;0.63;;
71969;SDS011;59838;52.152;5.436;2022-08-30T11:47:57;1.30;;;0.60;;
71969;SDS011;59838;52.152;5.436;2022-08-30T11:50:40;2.90;;;0.57;;
71969;SDS011;59838;52.152;5.436;2022-08-30T11:56:24;1.40;;;0.50;;
71969;SDS011;59838;52.152;5.436;2022-08-30T11:59:06;4.13;;;0.57;;
71969;SDS011;59838;52.152;5.436;2022-08-30T12:01:39;2.07;;;0.50;;
71969;SDS011;59838;52.152;5.436;2022-08-30T12:06:48;2.00;;;0.40;;
71969;SDS011;59838;52.152;5.436;2022-08-30T12:12:10;1.60;;;0.88;;
71969;SDS011;59838;52.152;5.436;2022-08-30T12:15:50;4.30;;;1.13;;
71969;SDS011;59838;52.152;5.436;2022-08-30T12:24:04;2.40;;;0.70;;
71969;SDS011;59838;52.152;5.436;2022-08-30T12:26:49;2.30;;;0.63;;
71969;SDS011;59838;52.152;5.436;2022-08-30T12:34:35;1.95;;;0.60;;
71969;SDS011;59838;52.152;5.436;2022-08-30T12:40:05;1.60;;;0.68;;
71969;SDS011;59838;52.152;5.436;2022-08-30T12:42:39;1.13;;;0.60;;
71969;SDS011;59838;52.152;5.436;2022-08-30T12:45:21;8.52;;;0.90;;
71969;SDS011;59838;52.152;5.436;2022-08-30T12:48:07;3.30;;;0.70;;
71969;SDS011;59838;52.152;5.436;2022-08-30T12:50:52;3.65;;;0.70;;
71969;SDS011;59838;52.152;5.436;2022-08-30T12:53:22;2.47;;;0.90;;
71969;SDS011;59838;52.152;5.436;2022-08-30T12:58:38;1.35;;;0.63;;
71969;SDS011;59838;52.152;5.436;2022-08-30T13:01:26;2.22;;;0.82;;
71969;SDS011;59838;52.152;5.436;2022-08-30T13:06:49;2.35;;;0.93;;
71969;SDS011;59838;52.152;5.436;2022-08-30T13:09:42;2.80;;;0.70;;
71969;SDS011;59838;52.152;5.436;2022-08-30T13:12:22;3.55;;;1.48;;
71969;SDS011;59838;52.152;5.436;2022-08-30T13:15:11;6.05;;;1.25;;
71969;SDS011;59838;52.152;5.436;2022-08-30T13:17:41;1.75;;;0.82;;
71969;SDS011;59838;52.152;5.436;2022-08-30T13:22:45;3.53;;;0.80;;
71969;SDS011;59838;52.152;5.436;2022-08-30T13:25:34;1.73;;;1.02;;
71969;SDS011;59838;52.152;5.436;2022-08-30T13:28:10;1.70;;;1.02;;
71969;SDS011;59838;52.152;5.436;2022-08-30T13:30:43;3.35;;;1.15;;
71969;SDS011;59838;52.152;5.436;2022-08-30T13:33:15;5.95;;;1.33;;
71969;SDS011;59838;52.152;5.436;2022-08-30T13:35:42;2.83;;;0.90;;
71969;SDS011;59838;52.152;5.436;2022-08-30T13:38:16;2.95;;;1.15;;
71969;SDS011;59838;52.152;5.436;2022-08-30T13:40:50;3.60;;;1.85;;
71969;SDS011;59838;52.152;5.436;2022-08-30T13:43:23;3.25;;;1.60;;
71969;SDS011;59838;52.152;5.436;2022-08-30T13:45:49;3.65;;;1.80;;
71969;SDS011;59838;52.152;5.436;2022-08-30T13:48:24;3.40;;;1.13;;
71969;SDS011;59838;52.152;5.436;2022-08-30T13:50:50;4.68;;;1.30;;
71969;SDS011;59838;52.152;5.436;2022-08-30T13:53:18;3.20;;;1.35;;
71969;SDS011;59838;52.152;5.436;2022-08-30T13:56:10;2.10;;;1.08;;
71969;SDS011;59838;52.152;5.436;2022-08-30T13:58:39;3.63;;;1.45;;
71969;SDS011;59838;52.152;5.436;2022-08-30T14:01:12;9.90;;;1.10;;
71969;SDS011;59838;52.152;5.436;2022-08-30T14:03:38;4.93;;;1.40;;
71969;SDS011;59838;52.152;5.436;2022-08-30T14:06:31;2.97;;;0.88;;
71969;SDS011;59838;52.152;5.436;2022-08-30T14:09:33;2.05;;;0.80;;
71969;SDS011;59838;52.152;5.436;2022-08-30T14:12:07;2.30;;;1.35;;
71969;SDS011;59838;52.152;5.436;2022-08-30T14:14:33;3.23;;;0.60;;
71969;SDS011;59838;52.152;5.436;2022-08-30T14:17:09;1.58;;;0.60;;
71969;SDS011;59838;52.152;5.436;2022-08-30T14:19:37;4.45;;;0.88;;
71969;SDS011;59838;52.152;5.436;2022-08-30T14:22:11;2.85;;;0.85;;
71969;SDS011;59838;52.152;5.436;2022-08-30T14:24:43;2.55;;;0.88;;
71969;SDS011;59838;52.152;5.436;2022-08-30T14:27:10;2.73;;;0.50;;
71969;SDS011;59838;52.152;5.436;2022-08-30T14:29:42;1.45;;;0.70;;
71969;SDS011;59838;52.152;5.436;2022-08-30T14:32:09;1.27;;;0.47;;
71969;SDS011;59838;52.152;5.436;2022-08-30T14:34:43;0.85;;;0.40;;
71969;SDS011;59838;52.152;5.436;2022-08-30T14:37:10;3.17;;;0.52;;
71969;SDS011;59838;52.152;5.436;2022-08-30T14:39:44;1.83;;;0.60;;
71969;SDS011;59838;52.152;5.436;2022-08-30T14:42:18;2.95;;;0.90;;
71969;SDS011;59838;52.152;5.436;2022-08-30T14:44:45;4.15;;;0.90;;
71969;SDS011;59838;52.152;5.436;2022-08-30T14:47:22;1.30;;;0.60;;
71969;SDS011;59838;52.152;5.436;2022-08-30T14:49:55;2.30;;;0.60;;
71969;SDS011;59838;52.152;5.436;2022-08-30T14:52:29;4.47;;;0.70;;
71969;SDS011;59838;52.152;5.436;2022-08-30T14:55:04;2.05;;;0.40;;
71969;SDS011;59838;52.152;5.436;2022-08-30T14:57:34;1.88;;;0.50;;
71969;SDS011;59838;52.152;5.436;2022-08-30T15:00:07;1.85;;;0.47;;
71969;SDS011;59838;52.152;5.436;2022-08-30T15:02:36;1.52;;;0.60;;
71969;SDS011;59838;52.152;5.436;2022-08-30T15:05:08;2.33;;;0.93;;
71969;SDS011;59838;52.152;5.436;2022-08-30T15:07:35;5.22;;;0.70;;
71969;SDS011;59838;52.152;5.436;2022-08-30T15:10:09;1.30;;;0.60;;
71969;SDS011;59838;52.152;5.436;2022-08-30T15:12:48;2.10;;;0.50;;
71969;SDS011;59838;52.152;5.436;2022-08-30T15:15:22;1.90;;;0.70;;
71969;SDS011;59838;52.152;5.436;2022-08-30T15:17:55;1.80;;;0.50;;
71969;SDS011;59838;52.152;5.436;2022-08-30T15:20:28;2.55;;;0.60;;
71969;SDS011;59838;52.152;5.436;2022-08-30T15:22:55;1.45;;;0.95;;
71969;SDS011;59838;52.152;5.436;2022-08-30T15:25:30;4.80;;;0.60;;
71969;SDS011;59838;52.152;5.436;2022-08-30T15:27:56;4.38;;;0.30;;
71969;SDS011;59838;52.152;5.436;2022-08-30T15:30:29;1.93;;;0.50;;
71969;SDS011;59838;52.152;5.436;2022-08-30T15:33:02;2.65;;;0.90;;
71969;SDS011;59838;52.152;5.436;2022-08-30T15:35:29;3.30;;;0.43;;
71969;SDS011;59838;52.152;5.436;2022-08-30T15:38:01;1.00;;;0.40;;
71969;SDS011;59838;52.152;5.436;2022-08-30T15:40:28;1.27;;;0.68;;
71969;SDS011;59838;52.152;5.436;2022-08-30T15:43:05;1.93;;;0.40;;
71969;SDS011;59838;52.152;5.436;2022-08-30T15:45:31;3.42;;;0.73;;
71969;SDS011;59838;52.152;5.436;2022-08-30T15:47:58;2.33;;;0.60;;
71969;SDS011;59838;52.152;5.436;2022-08-30T15:50:33;2.13;;;0.68;;
71969;SDS011;59838;52.152;5.436;2022-08-30T15:53:01;0.88;;;0.47;;
71969;SDS011;59838;52.152;5.436;2022-08-30T15:55:35;2.03;;;0.90;;
71969;SDS011;59838;52.152;5.436;2022-08-30T15:58:01;1.17;;;0.50;;
71969;SDS011;59838;52.152;5.436;2022-08-30T16:00:35;2.15;;;0.70;;
71969;SDS011;59838;52.152;5.436;2022-08-30T16:03:03;3.17;;;0.68;;
71969;SDS011;59838;52.152;5.436;2022-08-30T16:05:36;1.55;;;0.60;;
71969;SDS011;59838;52.152;5.436;2022-08-30T16:08:03;3.80;;;0.60;;
71969;SDS011;59838;52.152;5.436;2022-08-30T16:10:29;2.65;;;0.60;;
71969;SDS011;59838;52.152;5.436;2022-08-30T16:13:08;1.30;;;0.80;;
71969;SDS011;59838;52.152;5.436;2022-08-30T16:15:41;2.05;;;0.40;;
71969;SDS011;59838;52.152;5.436;2022-08-30T16:18:10;4.88;;;0.50;;
71969;SDS011;59838;52.152;5.436;2022-08-30T16:20:44;1.20;;;0.40;;
71969;SDS011;59838;52.152;5.436;2022-08-30T16:23:18;3.03;;;0.70;;
71969;SDS011;59838;52.152;5.436;2022-08-30T16:25:44;1.60;;;0.63;;
71969;SDS011;59838;52.152;5.436;2022-08-30T16:28:16;4.03;;;0.50;;
71969;SDS011;59838;52.152;5.436;2022-08-30T16:30:49;1.27;;;0.52;;
71969;SDS011;59838;52.152;5.436;2022-08-30T16:33:23;2.10;;;0.60;;
71969;SDS011;59838;52.152;5.436;2022-08-30T16:35:57;5.95;;;0.57;;
71969;SDS011;59838;52.152;5.436;2022-08-30T16:38:24;6.82;;;0.40;;
71969;SDS011;59838;52.152;5.436;2022-08-30T16:40:57;6.88;;;0.55;;
71969;SDS011;59838;52.152;5.436;2022-08-30T16:43:30;2.13;;;0.70;;
71969;SDS011;59838;52.152;5.436;2022-08-30T16:46:07;1.00;;;0.40;;
71969;SDS011;59838;52.152;5.436;2022-08-30T16:48:36;1.50;;;0.40;;
71969;SDS011;59838;52.152;5.436;2022-08-30T16:51:14;16.38;;;1.50;;
71969;SDS011;59838;52.152;5.436;2022-08-30T16:53:42;3.75;;;0.43;;